createdAt,value
2019-03-21T00:01:27.775Z,10.85
2019-03-21T00:04:00.307Z,10.79
2019-03-21T00:06:30.231Z,10.72
2019-03-21T00:09:00.201Z,10.75
2019-03-21T00:11:54.418Z,10.75
2019-03-21T00:14:28.841Z,10.73
2019-03-21T00:16:58.761Z,10.75
2019-03-21T00:19:28.688Z,11.10
2019-03-21T00:21:58.623Z,11.24
2019-03-21T00:24:28.987Z,11.01
2019-03-21T00:26:58.927Z,10.87
2019-03-21T00:29:28.925Z,10.74
2019-03-21T00:31:58.830Z,10.72
2019-03-21T00:34:28.871Z,10.70
2019-03-21T00:36:58.791Z,10.68
2019-03-21T00:39:32.820Z,10.61
2019-03-21T00:42:00.362Z,10.57
2019-03-21T00:44:30.286Z,10.58
2019-03-21T00:47:00.226Z,10.52
2019-03-21T00:49:30.141Z,10.50
2019-03-21T00:52:00.068Z,10.59
2019-03-21T00:54:29.996Z,10.50
2019-03-21T00:57:00.008Z,10.44
2019-03-21T00:59:29.954Z,10.38
2019-03-21T01:01:59.861Z,10.31
2019-03-21T01:04:32.673Z,10.29
2019-03-21T01:07:02.573Z,10.25
2019-03-21T01:09:32.481Z,10.18
2019-03-21T01:12:02.564Z,8.71
2019-03-21T01:14:32.496Z,10.05
2019-03-21T01:17:04.900Z,10.02
2019-03-21T01:19:35.245Z,10.08
2019-03-21T01:22:05.182Z,10.06
2019-03-21T01:24:35.070Z,9.98
2019-03-21T01:27:04.984Z,9.86
2019-03-21T01:29:34.933Z,9.76
2019-03-21T01:32:04.820Z,9.85
2019-03-21T01:34:34.719Z,9.97
2019-03-21T01:37:04.781Z,9.89
2019-03-21T01:39:34.755Z,9.93
2019-03-21T01:42:04.652Z,9.96
2019-03-21T01:44:41.061Z,9.81
2019-03-21T01:47:06.376Z,9.73
2019-03-21T01:49:36.271Z,9.76
2019-03-21T01:52:06.322Z,9.77
2019-03-21T01:54:36.223Z,9.77
2019-03-21T01:57:06.151Z,9.71
2019-03-21T01:59:36.064Z,9.66
2019-03-21T02:02:05.994Z,9.47
2019-03-21T02:04:35.929Z,9.32
2019-03-21T02:07:05.919Z,9.13
2019-03-21T02:09:35.813Z,9.03
2019-03-21T02:12:05.719Z,8.97
2019-03-21T02:14:35.636Z,8.91
2019-03-21T02:17:05.545Z,8.70
2019-03-21T02:19:35.458Z,8.41
2019-03-21T02:22:05.472Z,8.33
2019-03-21T02:24:35.396Z,8.27
2019-03-21T02:27:05.299Z,8.24
2019-03-21T02:29:35.232Z,8.21
2019-03-21T02:32:05.125Z,8.25
2019-03-21T02:34:35.039Z,8.19
2019-03-21T02:37:04.951Z,8.22
2019-03-21T02:39:34.872Z,8.32
2019-03-21T02:42:04.752Z,8.34
2019-03-21T02:44:34.755Z,8.35
2019-03-21T02:47:04.662Z,8.27
2019-03-21T02:49:34.565Z,8.33
2019-03-21T02:52:04.506Z,8.24
2019-03-21T02:54:34.407Z,8.26
2019-03-21T02:57:04.280Z,8.26
2019-03-21T02:59:34.186Z,8.27
2019-03-21T03:02:04.167Z,8.20
2019-03-21T03:04:34.062Z,8.16
2019-03-21T03:07:04.046Z,8.19
2019-03-21T03:09:34.576Z,8.18
2019-03-21T03:12:04.485Z,8.17
2019-03-21T03:14:34.423Z,8.04
2019-03-21T03:17:04.318Z,8.05
2019-03-21T03:19:34.190Z,8.03
2019-03-21T03:22:04.121Z,8.05
2019-03-21T03:24:35.191Z,8.13
2019-03-21T03:27:05.103Z,8.14
2019-03-21T03:29:34.981Z,8.15
2019-03-21T03:32:04.883Z,8.17
2019-03-21T03:34:34.836Z,8.18
2019-03-21T03:37:04.760Z,8.18
2019-03-21T03:39:37.055Z,8.08
2019-03-21T03:42:06.299Z,8.15
2019-03-21T03:44:36.166Z,8.17
2019-03-21T03:47:06.087Z,8.20
2019-03-21T03:49:35.994Z,8.12
2019-03-21T03:52:05.926Z,8.15
2019-03-21T03:54:36.296Z,8.20
2019-03-21T03:57:06.229Z,8.24
2019-03-21T03:59:36.128Z,8.20
2019-03-21T04:02:06.028Z,8.12
2019-03-21T04:04:35.978Z,8.17
2019-03-21T04:07:05.870Z,8.21
2019-03-21T04:09:35.741Z,8.26
2019-03-21T04:12:05.755Z,8.36
2019-03-21T04:14:35.659Z,8.34
2019-03-21T04:17:05.580Z,8.35
2019-03-21T04:19:35.511Z,8.39
2019-03-21T04:22:05.416Z,8.33
2019-03-21T04:24:35.350Z,8.36
2019-03-21T04:27:05.240Z,8.27
2019-03-21T04:29:35.129Z,8.30
2019-03-21T04:32:05.019Z,8.27
2019-03-21T04:34:34.919Z,8.31
2019-03-21T04:37:04.808Z,8.39
2019-03-21T04:39:34.774Z,8.36
2019-03-21T04:42:04.671Z,8.31
2019-03-21T04:44:34.571Z,8.26
2019-03-21T04:47:04.480Z,8.34
2019-03-21T04:49:34.414Z,8.25
2019-03-21T04:52:04.899Z,8.22
2019-03-21T04:54:34.854Z,8.12
2019-03-21T04:57:04.814Z,8.17
2019-03-21T04:59:34.693Z,8.23
2019-03-21T05:02:04.787Z,8.33
2019-03-21T05:04:34.719Z,8.36
2019-03-21T05:07:04.666Z,8.33
2019-03-21T05:09:34.569Z,8.31
2019-03-21T05:12:06.310Z,8.44
2019-03-21T05:14:36.278Z,8.50
2019-03-21T05:17:06.234Z,8.51
2019-03-21T05:19:36.158Z,8.58
2019-03-21T05:22:06.042Z,8.59
2019-03-21T05:24:35.970Z,8.60
2019-03-21T05:27:05.907Z,8.44
2019-03-21T05:29:35.874Z,8.45
2019-03-21T05:32:05.809Z,8.39
2019-03-21T05:34:35.781Z,8.34
2019-03-21T05:37:05.710Z,8.34
2019-03-21T05:39:35.620Z,8.38
2019-03-21T05:42:09.210Z,8.47
2019-03-21T05:44:42.237Z,8.93
2019-03-21T05:47:12.192Z,9.14
2019-03-21T05:49:42.115Z,9.06
2019-03-21T05:52:12.788Z,8.87
2019-03-21T05:54:42.761Z,9.28
2019-03-21T05:57:12.699Z,9.53
2019-03-21T05:59:42.633Z,9.48
2019-03-21T06:02:12.609Z,9.36
2019-03-21T06:04:42.568Z,9.84
2019-03-21T06:07:19.203Z,9.96
2019-03-21T06:09:49.158Z,9.77
2019-03-21T06:12:22.162Z,9.69
2019-03-21T06:14:55.769Z,9.66
2019-03-21T06:17:25.945Z,9.48
2019-03-21T06:20:15.759Z,10.00
2019-03-21T06:23:07.698Z,10.00
2019-03-21T06:26:08.789Z,10.06
2019-03-21T06:28:38.738Z,10.47
2019-03-21T06:31:08.675Z,10.28
2019-03-21T06:33:38.677Z,10.21
2019-03-21T06:36:08.580Z,10.80
2019-03-21T06:38:38.546Z,10.78
2019-03-21T06:41:08.546Z,10.22
2019-03-21T06:43:38.465Z,10.36
2019-03-21T06:46:08.365Z,10.46
2019-03-21T06:48:38.303Z,10.31
2019-03-21T06:51:08.243Z,10.59
2019-03-21T06:53:38.163Z,10.49
2019-03-21T06:56:08.079Z,10.88
2019-03-21T06:58:38.109Z,10.75
2019-03-21T07:01:08.199Z,10.55
2019-03-21T07:03:38.105Z,10.29
2019-03-21T07:06:08.020Z,10.35
2019-03-21T07:08:38.000Z,10.55
2019-03-21T07:11:08.073Z,10.63
2019-03-21T07:13:37.977Z,10.91
2019-03-21T07:16:09.418Z,11.02
2019-03-21T07:18:39.493Z,10.86
2019-03-21T07:21:09.468Z,10.83
2019-03-21T07:23:39.412Z,10.81
2019-03-21T07:26:09.348Z,11.06
2019-03-21T07:28:39.315Z,10.96
2019-03-21T07:31:11.295Z,10.87
2019-03-21T07:33:40.890Z,10.56
2019-03-21T07:36:10.829Z,10.40
2019-03-21T07:38:40.814Z,10.38
2019-03-21T07:41:11.294Z,10.40
2019-03-21T07:43:41.385Z,10.83
2019-03-21T07:46:16.182Z,11.30
2019-03-21T07:48:47.002Z,10.95
2019-03-21T07:51:16.917Z,11.12
2019-03-21T07:53:46.814Z,10.79
2019-03-21T07:56:16.788Z,10.79
2019-03-21T07:58:46.726Z,11.00
2019-03-21T08:01:16.677Z,10.95
2019-03-21T08:03:46.617Z,10.89
2019-03-21T08:06:16.967Z,11.16
2019-03-21T08:08:46.901Z,11.17
2019-03-21T08:11:16.826Z,10.89
2019-03-21T08:13:46.785Z,10.62
2019-03-21T08:16:16.760Z,10.92
2019-03-21T08:18:47.286Z,11.29
2019-03-21T08:21:17.232Z,11.77
2019-03-21T08:23:47.129Z,11.93
2019-03-21T08:26:17.081Z,11.65
2019-03-21T08:28:47.063Z,11.19
2019-03-21T08:31:21.283Z,10.98
2019-03-21T08:33:51.242Z,11.34
2019-03-21T08:36:21.209Z,11.42
2019-03-21T08:38:51.168Z,11.44
2019-03-21T08:41:21.192Z,11.74
2019-03-21T08:43:51.273Z,12.08
2019-03-21T08:46:21.294Z,12.14
2019-03-21T08:48:51.498Z,12.40
2019-03-21T08:51:21.492Z,11.86
2019-03-21T08:53:51.415Z,11.50
2019-03-21T08:56:21.300Z,11.20
2019-03-21T08:58:51.249Z,10.89
2019-03-21T09:01:21.165Z,10.62
2019-03-21T09:03:51.119Z,10.53
2019-03-21T09:06:21.082Z,10.69
2019-03-21T09:08:50.979Z,10.81
2019-03-21T09:11:20.896Z,10.92
2019-03-21T09:13:50.847Z,11.16
2019-03-21T09:16:20.794Z,11.38
2019-03-21T09:18:50.762Z,11.49
2019-03-21T09:21:20.723Z,11.75
2019-03-21T09:23:50.689Z,11.90
2019-03-21T09:26:20.648Z,11.75
2019-03-21T09:28:50.777Z,11.72
2019-03-21T09:31:20.722Z,11.59
2019-03-21T09:33:50.663Z,11.76
2019-03-21T09:36:20.582Z,11.50
2019-03-21T09:38:50.487Z,11.48
2019-03-21T09:41:20.443Z,11.58
2019-03-21T09:43:50.358Z,11.69
2019-03-21T09:46:20.508Z,11.77
2019-03-21T09:48:50.466Z,12.07
2019-03-21T09:51:30.463Z,12.35
2019-03-21T09:53:52.157Z,12.39
2019-03-21T09:56:24.106Z,12.41
2019-03-21T09:58:53.753Z,12.56
2019-03-21T10:01:23.705Z,12.77
2019-03-21T10:03:53.630Z,12.70
2019-03-21T10:06:23.574Z,12.94
2019-03-21T10:08:53.469Z,13.08
2019-03-21T10:11:23.379Z,13.27
2019-03-21T10:13:53.322Z,13.21
2019-03-21T10:16:23.523Z,13.18
2019-03-21T10:18:53.453Z,13.78
2019-03-21T10:21:23.400Z,14.19
2019-03-21T10:23:53.295Z,14.63
2019-03-21T10:26:23.216Z,15.34
2019-03-21T10:28:53.135Z,15.45
2019-03-21T10:31:23.071Z,14.52
2019-03-21T10:33:53.001Z,14.41
2019-03-21T10:36:22.954Z,14.10
2019-03-21T10:38:54.923Z,15.20
2019-03-21T10:41:24.885Z,15.30
2019-03-21T10:43:54.805Z,16.08
2019-03-21T10:46:24.776Z,15.93
2019-03-21T10:48:54.680Z,15.58
2019-03-21T10:51:24.594Z,15.05
2019-03-21T10:53:55.376Z,14.61
2019-03-21T10:56:25.294Z,14.36
2019-03-21T10:58:55.237Z,14.68
2019-03-21T11:01:25.210Z,14.63
2019-03-21T11:03:55.187Z,14.57
2019-03-21T11:06:25.102Z,15.23
2019-03-21T11:08:55.038Z,16.44
2019-03-21T11:11:24.983Z,15.95
2019-03-21T11:13:55.183Z,16.16
2019-03-21T11:16:25.303Z,16.75
2019-03-21T11:18:56.194Z,17.31
2019-03-21T11:21:26.184Z,17.90
2019-03-21T11:23:56.105Z,17.49
2019-03-21T11:26:26.049Z,16.89
2019-03-21T11:28:55.978Z,16.32
2019-03-21T11:31:26.806Z,15.85
2019-03-21T11:33:56.717Z,16.01
2019-03-21T11:36:33.779Z,17.00
2019-03-21T11:38:58.261Z,18.12
2019-03-21T11:41:28.313Z,17.82
2019-03-21T11:43:58.244Z,17.19
2019-03-21T11:46:28.797Z,16.73
2019-03-21T11:48:59.736Z,16.18
2019-03-21T11:51:29.649Z,16.75
2019-03-21T11:53:59.748Z,17.51
2019-03-21T11:56:30.716Z,18.41
2019-03-21T11:59:00.627Z,18.98
2019-03-21T12:01:30.599Z,19.02
2019-03-21T12:04:00.510Z,18.51
2019-03-21T12:06:30.449Z,18.12
2019-03-21T12:09:00.383Z,18.09
2019-03-21T12:11:30.767Z,18.65
2019-03-21T12:14:00.681Z,18.87
2019-03-21T12:16:30.596Z,18.74
2019-03-21T12:19:00.628Z,17.78
2019-03-21T12:21:31.010Z,18.09
2019-03-21T12:24:00.947Z,18.34
2019-03-21T12:26:31.252Z,18.96
2019-03-21T12:29:01.182Z,18.57
2019-03-21T12:31:31.094Z,18.33
2019-03-21T12:34:00.985Z,16.96
2019-03-21T12:36:30.937Z,16.08
2019-03-21T12:39:00.864Z,15.46
2019-03-21T12:41:30.775Z,15.03
2019-03-21T12:44:00.675Z,15.16
2019-03-21T12:46:30.595Z,16.41
2019-03-21T12:49:00.938Z,17.07
2019-03-21T12:51:30.879Z,16.75
2019-03-21T12:54:00.789Z,16.35
2019-03-21T12:56:30.695Z,16.53
2019-03-21T12:59:00.649Z,16.52
2019-03-21T13:01:30.568Z,16.55
2019-03-21T13:04:00.522Z,16.53
2019-03-21T13:06:30.451Z,16.29
2019-03-21T13:09:00.366Z,15.93
2019-03-21T13:11:30.294Z,15.81
2019-03-21T13:14:00.203Z,15.86
2019-03-21T13:16:31.101Z,15.74
2019-03-21T13:19:01.017Z,15.73
2019-03-21T13:21:30.957Z,15.62
2019-03-21T13:24:00.860Z,15.22
2019-03-21T13:26:30.747Z,15.31
2019-03-21T13:29:00.667Z,15.33
2019-03-21T13:31:30.618Z,15.33
2019-03-21T13:34:00.580Z,15.27
2019-03-21T13:36:30.519Z,15.23
2019-03-21T13:39:00.437Z,15.21
2019-03-21T13:41:30.351Z,15.23
2019-03-21T13:44:00.285Z,15.09
2019-03-21T13:46:30.210Z,14.85
2019-03-21T13:49:00.142Z,14.85
2019-03-21T13:51:30.544Z,14.95
2019-03-21T13:54:00.499Z,14.77
2019-03-21T13:56:37.963Z,14.40
2019-03-21T13:59:02.111Z,14.34
2019-03-21T14:01:32.068Z,14.38
2019-03-21T14:04:02.129Z,14.64
2019-03-21T14:06:31.992Z,14.60
2019-03-21T14:09:02.156Z,14.41
2019-03-21T14:11:32.091Z,14.33
2019-03-21T14:14:02.032Z,14.08
2019-03-21T14:16:31.951Z,14.08
2019-03-21T14:19:02.345Z,14.50
2019-03-21T14:21:32.251Z,14.43
2019-03-21T14:24:02.199Z,14.31
2019-03-21T14:26:32.120Z,14.26
2019-03-21T14:29:12.286Z,14.25
2019-03-21T14:31:33.642Z,14.17
2019-03-21T14:34:03.546Z,14.28
2019-03-21T14:36:33.491Z,14.31
2019-03-21T14:39:04.471Z,14.45
2019-03-21T14:41:34.397Z,14.44
2019-03-21T14:44:06.984Z,14.41
2019-03-21T14:46:36.183Z,14.32
2019-03-21T14:49:06.130Z,14.39
2019-03-21T14:51:36.069Z,10.72
2019-03-21T14:54:05.965Z,14.15
2019-03-21T14:56:35.941Z,14.09
2019-03-21T14:59:05.876Z,14.19
2019-03-21T15:01:35.851Z,14.21
2019-03-21T15:04:05.894Z,14.13
2019-03-21T15:06:35.785Z,14.12
2019-03-21T15:09:07.338Z,14.03
2019-03-21T15:11:37.418Z,13.75
2019-03-21T15:14:07.368Z,13.59
2019-03-21T15:16:37.279Z,13.48
2019-03-21T15:19:07.223Z,13.37
2019-03-21T15:21:37.150Z,13.33
2019-03-21T15:24:07.110Z,13.35
2019-03-21T15:26:37.010Z,13.23
2019-03-21T15:29:06.937Z,13.22
2019-03-21T15:31:36.866Z,13.12
2019-03-21T15:34:08.092Z,13.05
2019-03-21T15:36:38.003Z,12.93
2019-03-21T15:39:09.139Z,12.79
2019-03-21T15:41:39.455Z,12.74
2019-03-21T15:44:09.372Z,12.59
2019-03-21T15:46:40.271Z,12.59
2019-03-21T15:49:10.201Z,12.56
2019-03-21T15:51:40.134Z,12.51
2019-03-21T15:54:10.046Z,12.33
2019-03-21T15:56:39.954Z,12.34
2019-03-21T15:59:09.904Z,12.17
2019-03-21T16:01:39.823Z,12.06
2019-03-21T16:04:09.715Z,12.12
2019-03-21T16:06:39.600Z,12.11
2019-03-21T16:09:09.490Z,11.99
2019-03-21T16:11:39.398Z,11.82
2019-03-21T16:14:09.297Z,11.71
2019-03-21T16:16:39.216Z,11.68
2019-03-21T16:19:09.126Z,11.54
2019-03-21T16:21:39.029Z,11.53
2019-03-21T16:24:08.984Z,11.50
2019-03-21T16:26:38.883Z,11.49
2019-03-21T16:29:10.153Z,11.47
2019-03-21T16:31:40.276Z,11.36
2019-03-21T16:34:10.230Z,11.27
2019-03-21T16:36:40.606Z,11.19
2019-03-21T16:39:10.621Z,11.03
2019-03-21T16:41:40.524Z,10.99
2019-03-21T16:44:11.602Z,10.91
2019-03-21T16:46:41.564Z,10.85
2019-03-21T16:49:12.100Z,10.84
2019-03-21T16:51:42.515Z,10.77
2019-03-21T16:54:17.441Z,10.73
2019-03-21T16:56:45.989Z,10.60
2019-03-21T16:59:24.533Z,10.60
2019-03-21T17:01:55.614Z,10.56
2019-03-21T17:04:25.557Z,10.44
2019-03-21T17:06:55.517Z,10.42
2019-03-21T17:09:25.419Z,10.46
2019-03-21T17:11:55.349Z,10.46
2019-03-21T17:14:25.270Z,10.40
2019-03-21T17:16:55.262Z,10.20
2019-03-21T17:19:25.807Z,10.15
2019-03-21T17:21:55.847Z,10.16
2019-03-21T17:24:29.666Z,10.07
2019-03-21T17:26:57.864Z,9.98
2019-03-21T17:29:27.823Z,9.97
2019-03-21T17:31:57.747Z,9.92
2019-03-21T17:34:27.675Z,9.88
2019-03-21T17:36:59.691Z,9.86
2019-03-21T17:39:29.601Z,9.84
2019-03-21T17:41:59.508Z,9.98
2019-03-21T17:44:29.404Z,9.93
2019-03-21T17:46:59.314Z,10.20
2019-03-21T17:49:34.109Z,10.28
2019-03-21T17:52:06.410Z,10.35
2019-03-21T17:54:41.488Z,10.44
2019-03-21T17:57:08.017Z,10.56
2019-03-21T17:59:37.972Z,10.49
2019-03-21T18:02:08.082Z,10.45
2019-03-21T18:04:38.444Z,10.48
2019-03-21T18:07:08.585Z,10.53
2019-03-21T18:09:38.517Z,10.46
2019-03-21T18:12:08.448Z,10.38
2019-03-21T18:14:38.467Z,10.32
2019-03-21T18:17:08.391Z,10.34
2019-03-21T18:19:38.473Z,10.45
2019-03-21T18:22:08.450Z,10.50
2019-03-21T18:24:38.384Z,10.48
2019-03-21T18:27:08.318Z,10.40
2019-03-21T18:29:38.411Z,10.35
2019-03-21T18:32:10.627Z,10.28
2019-03-21T18:34:40.956Z,10.27
2019-03-21T18:37:33.519Z,10.31
2019-03-21T18:40:03.769Z,10.29
2019-03-21T18:42:41.666Z,10.31
2019-03-21T18:45:12.360Z,10.22
2019-03-21T18:47:42.496Z,10.21
2019-03-21T18:50:12.728Z,10.14
2019-03-21T18:52:42.702Z,10.17
2019-03-21T18:55:12.635Z,10.17
2019-03-21T18:57:42.587Z,10.16
2019-03-21T19:00:13.421Z,10.15
2019-03-21T19:02:43.386Z,10.16
2019-03-21T19:05:13.821Z,10.08
2019-03-21T19:07:43.793Z,10.09
2019-03-21T19:10:13.987Z,10.11
2019-03-21T19:12:44.008Z,10.27
2019-03-21T19:15:14.143Z,11.06
2019-03-21T19:17:44.150Z,11.15
2019-03-21T19:20:14.750Z,10.75
2019-03-21T19:22:44.732Z,10.79
2019-03-21T19:25:19.118Z,10.80
2019-03-21T19:27:47.759Z,10.68
2019-03-21T19:30:17.950Z,10.57
2019-03-21T19:32:47.840Z,10.28
2019-03-21T19:35:17.931Z,10.01
2019-03-21T19:37:47.854Z,10.10
2019-03-21T19:40:17.802Z,10.38
2019-03-21T19:42:47.733Z,10.46
2019-03-21T19:45:18.069Z,10.15
2019-03-21T19:47:47.984Z,10.14
2019-03-21T19:50:18.582Z,10.24
2019-03-21T19:52:48.523Z,10.22
2019-03-21T19:55:25.859Z,10.15
2019-03-21T19:57:50.139Z,10.29
2019-03-21T20:00:20.768Z,10.21
2019-03-21T20:02:50.759Z,10.07
2019-03-21T20:05:20.995Z,9.93
2019-03-21T20:07:51.527Z,9.70
2019-03-21T20:10:21.717Z,9.64
2019-03-21T20:12:51.639Z,9.61
2019-03-21T20:15:21.753Z,9.61
2019-03-21T20:17:51.662Z,9.62
2019-03-21T20:20:21.714Z,9.65
2019-03-21T20:22:51.755Z,9.48
2019-03-21T20:25:22.777Z,9.33
2019-03-21T20:27:52.648Z,9.24
2019-03-21T20:30:22.760Z,9.16
2019-03-21T20:32:52.649Z,9.15
2019-03-21T20:35:23.874Z,9.12
2019-03-21T20:37:53.675Z,9.03
2019-03-21T20:40:23.600Z,8.97
2019-03-21T20:42:53.636Z,9.04
2019-03-21T20:45:23.813Z,9.00
2019-03-21T20:47:53.953Z,9.01
2019-03-21T20:50:24.043Z,9.05
2019-03-21T20:52:54.103Z,9.13
2019-03-21T20:55:25.018Z,9.23
2019-03-21T20:57:54.951Z,9.32
2019-03-21T21:00:25.170Z,9.43
2019-03-21T21:02:55.902Z,9.39
2019-03-21T21:05:25.825Z,9.38
2019-03-21T21:07:57.571Z,9.22
2019-03-21T21:10:27.545Z,9.09
2019-03-21T21:12:57.608Z,9.17
2019-03-21T21:15:27.973Z,9.22
2019-03-21T21:17:57.921Z,9.13
2019-03-21T21:20:27.841Z,9.11
2019-03-21T21:22:57.787Z,9.17
2019-03-21T21:25:27.802Z,9.17
2019-03-21T21:27:57.725Z,9.16
2019-03-21T21:30:27.621Z,9.17
2019-03-21T21:32:57.593Z,9.05
2019-03-21T21:35:27.521Z,9.00
2019-03-21T21:37:57.540Z,8.97
2019-03-21T21:40:27.593Z,9.05
2019-03-21T21:42:57.628Z,9.13
2019-03-21T21:45:27.698Z,9.21
2019-03-21T21:48:00.083Z,9.18
2019-03-21T21:50:30.080Z,9.03
2019-03-21T21:53:00.016Z,8.79
2019-03-21T21:55:29.954Z,7.97
2019-03-21T21:57:59.938Z,8.57
2019-03-21T22:00:29.867Z,8.67
2019-03-21T22:02:59.895Z,8.75
2019-03-21T22:05:29.943Z,8.80
2019-03-21T22:07:59.880Z,8.72
2019-03-21T22:10:30.778Z,8.63
2019-03-21T22:13:00.694Z,8.56
2019-03-21T22:15:30.623Z,8.34
2019-03-21T22:18:00.542Z,8.26
2019-03-21T22:20:30.504Z,8.28
2019-03-21T22:23:00.562Z,8.23
2019-03-21T22:25:30.487Z,8.39
2019-03-21T22:28:00.475Z,8.54
2019-03-21T22:30:30.395Z,8.53
2019-03-21T22:33:00.320Z,8.56
2019-03-21T22:35:30.264Z,8.63
2019-03-21T22:38:00.256Z,8.61
2019-03-21T22:40:30.162Z,8.57
2019-03-21T22:43:00.074Z,8.52
2019-03-21T22:45:30.019Z,8.40
2019-03-21T22:47:59.946Z,8.50
2019-03-21T22:50:29.855Z,8.53
2019-03-21T22:52:59.826Z,8.56
2019-03-21T22:55:31.707Z,8.61
2019-03-21T22:58:01.715Z,8.67
2019-03-21T23:00:41.817Z,8.73
2019-03-21T23:03:11.834Z,8.68
2019-03-21T23:05:41.744Z,8.67
2019-03-21T23:08:11.753Z,8.54
2019-03-21T23:10:41.701Z,8.47
2019-03-21T23:13:11.593Z,8.49
2019-03-21T23:15:41.512Z,7.30
2019-03-21T23:18:11.399Z,8.18
2019-03-21T23:20:41.356Z,8.04
2019-03-21T23:23:11.308Z,7.94
2019-03-21T23:25:41.242Z,8.03
2019-03-21T23:28:11.303Z,8.02
2019-03-21T23:30:41.252Z,7.82
2019-03-21T23:33:11.229Z,7.76
2019-03-21T23:35:41.149Z,7.65
2019-03-21T23:38:11.213Z,7.53
2019-03-21T23:40:41.110Z,7.42
2019-03-21T23:43:11.042Z,7.35
2019-03-21T23:45:40.958Z,7.28
2019-03-21T23:48:10.899Z,7.15
2019-03-21T23:50:40.794Z,7.03
2019-03-21T23:53:11.096Z,6.92
2019-03-21T23:55:40.973Z,6.91
2019-03-21T23:58:11.024Z,6.97
